createdAt,value
2018-12-01T00:01:53.502Z,51.60
2018-12-01T00:04:22.949Z,51.50
2018-12-01T00:06:52.334Z,51.40
2018-12-01T00:09:23.250Z,51.40
2018-12-01T00:11:52.680Z,51.60
2018-12-01T00:14:23.180Z,51.40
2018-12-01T00:16:52.620Z,50.40
2018-12-01T00:19:23.091Z,49.80
2018-12-01T00:21:53.610Z,50.60
2018-12-01T00:24:24.166Z,50.80
2018-12-01T00:26:53.615Z,50.60
2018-12-01T00:29:23.041Z,50.00
2018-12-01T00:31:52.454Z,50.20
2018-12-01T00:34:21.879Z,50.50
2018-12-01T00:36:51.913Z,50.20
2018-12-01T00:39:21.347Z,50.20
2018-12-01T00:41:50.703Z,50.00
2018-12-01T00:44:20.207Z,50.50
2018-12-01T00:46:51.108Z,50.40
2018-12-01T00:49:21.968Z,50.30
2018-12-01T00:51:51.711Z,50.40
2018-12-01T00:54:22.617Z,50.50
2018-12-01T00:56:52.013Z,51.40
2018-12-01T00:59:22.180Z,50.90
2018-12-01T01:01:54.300Z,51.10
2018-12-01T01:04:24.778Z,51.40
2018-12-01T01:07:05.678Z,52.00
2018-12-01T01:09:38.046Z,51.70
2018-12-01T01:12:12.163Z,51.70
2018-12-01T01:14:42.487Z,52.00
2018-12-01T01:17:12.961Z,52.20
2018-12-01T01:20:33.284Z,52.70
2018-12-01T01:23:02.714Z,52.60
2018-12-01T01:25:32.188Z,52.10
2018-12-01T01:28:02.696Z,52.00
2018-12-01T01:30:34.048Z,52.50
2018-12-01T01:35:57.819Z,53.00
2018-12-01T01:38:27.299Z,53.20
2018-12-01T01:43:45.232Z,53.70
2018-12-01T01:46:14.701Z,53.40
2018-12-01T01:48:44.196Z,53.30
2018-12-01T01:51:14.644Z,53.10
2018-12-01T01:53:44.155Z,53.20
2018-12-01T04:42:27.522Z,55.60
2018-12-01T07:08:59.409Z,68.60
2018-12-01T07:11:28.763Z,68.80
2018-12-01T07:13:58.120Z,69.00
2018-12-01T07:16:27.474Z,69.20
2018-12-01T07:19:07.303Z,69.10
2018-12-01T07:21:36.635Z,69.00
2018-12-01T07:24:05.977Z,69.00
2018-12-01T07:26:35.366Z,69.10
2018-12-01T07:29:04.815Z,69.30
2018-12-01T07:31:34.250Z,69.30
2018-12-01T07:34:03.613Z,69.10
2018-12-01T07:36:33.057Z,69.30
2018-12-01T07:39:02.391Z,69.40
2018-12-01T07:41:31.749Z,69.70
2018-12-01T07:44:01.175Z,69.80
2018-12-01T07:46:30.524Z,70.00
2018-12-01T07:48:59.874Z,70.10
2018-12-01T07:51:29.301Z,70.30
2018-12-01T07:53:58.715Z,70.70
2018-12-01T07:56:28.050Z,70.80
2018-12-01T07:58:57.385Z,70.80
2018-12-01T08:01:26.708Z,70.90
2018-12-01T08:03:56.070Z,71.10
2018-12-01T08:06:25.475Z,71.20
2018-12-01T08:08:54.815Z,71.20
2018-12-01T08:11:24.175Z,71.20
2018-12-01T08:13:53.603Z,71.10
2018-12-01T08:16:23.025Z,71.00
2018-12-01T08:18:52.357Z,71.10
2018-12-01T08:21:21.822Z,71.70
2018-12-01T08:23:51.198Z,71.70
2018-12-01T08:26:20.536Z,70.80
2018-12-01T08:28:49.866Z,70.20
2018-12-01T08:31:19.216Z,69.50
2018-12-01T08:33:48.641Z,68.50
2018-12-01T08:36:17.995Z,67.60
2018-12-01T08:38:47.382Z,67.10
2018-12-01T08:41:16.744Z,67.00
2018-12-01T08:43:46.057Z,67.30
2018-12-01T08:46:15.402Z,66.70
2018-12-01T08:48:44.791Z,65.40
2018-12-01T08:51:14.166Z,65.00
2018-12-01T08:53:43.516Z,64.40
2018-12-01T08:56:12.919Z,64.00
2018-12-01T08:58:42.308Z,63.40
2018-12-01T09:01:11.911Z,63.30
2018-12-01T09:03:41.260Z,62.70
2018-12-01T09:06:10.686Z,60.90
2018-12-01T09:08:40.291Z,60.00
2018-12-01T09:11:09.707Z,60.50
2018-12-01T09:13:39.125Z,59.50
2018-12-01T09:16:08.826Z,59.40
2018-12-01T09:18:38.246Z,59.00
2018-12-01T09:21:07.594Z,57.70
2018-12-01T09:23:36.934Z,57.60
2018-12-01T09:26:06.402Z,57.00
2018-12-01T09:28:35.753Z,56.90
2018-12-01T09:31:05.091Z,56.00
2018-12-01T09:33:34.519Z,55.90
2018-12-01T09:36:03.945Z,56.30
2018-12-01T09:38:33.953Z,55.70
2018-12-01T09:41:04.258Z,55.00
2018-12-01T09:43:34.701Z,54.90
2018-12-01T09:46:04.123Z,54.90
2018-12-01T09:48:33.505Z,53.40
2018-12-01T09:51:02.886Z,53.50
2018-12-01T09:53:32.273Z,54.10
2018-12-01T09:56:01.593Z,53.70
2018-12-01T09:58:30.946Z,52.70
2018-12-01T10:01:00.358Z,52.90
2018-12-01T10:03:29.722Z,53.70
2018-12-01T10:05:59.042Z,52.80
2018-12-01T10:08:28.410Z,52.30
2018-12-01T10:10:58.965Z,51.60
2018-12-01T10:13:28.418Z,51.30
2018-12-01T10:15:57.803Z,51.80
2018-12-01T10:18:27.149Z,50.90
2018-12-01T10:20:56.553Z,50.70
2018-12-01T10:23:25.874Z,50.20
2018-12-01T10:25:55.245Z,50.90
2018-12-01T10:28:24.604Z,51.10
2018-12-01T10:30:54.018Z,51.30
2018-12-01T10:33:23.355Z,51.70
2018-12-01T10:35:52.763Z,51.50
2018-12-01T10:38:22.119Z,51.90
2018-12-01T10:40:51.516Z,51.80
2018-12-01T10:43:20.865Z,51.50
2018-12-01T10:45:50.262Z,52.20
2018-12-01T10:48:19.574Z,51.80
2018-12-01T10:50:48.950Z,51.70
2018-12-01T10:53:18.278Z,51.70
2018-12-01T10:55:47.682Z,51.80
2018-12-01T10:58:19.334Z,52.20
2018-12-01T11:00:54.813Z,52.20
2018-12-01T11:03:30.919Z,52.10
2018-12-01T11:06:01.250Z,52.40
2018-12-01T11:08:30.585Z,52.50
2018-12-01T11:10:59.961Z,52.40
2018-12-01T11:13:29.294Z,52.40
2018-12-01T11:15:58.680Z,52.70
2018-12-01T11:18:28.074Z,52.50
2018-12-01T11:20:57.442Z,52.40
2018-12-01T11:23:26.844Z,52.60
2018-12-01T11:25:56.210Z,52.70
2018-12-01T11:28:25.541Z,52.50
2018-12-01T11:30:54.926Z,52.50
2018-12-01T11:33:24.302Z,52.60
2018-12-01T11:35:53.929Z,53.20
2018-12-01T11:38:23.407Z,53.30
2018-12-01T11:40:52.781Z,53.30
2018-12-01T11:43:22.153Z,53.40
2018-12-01T11:45:51.533Z,53.60
2018-12-01T11:48:21.107Z,53.90
2018-12-01T11:50:50.554Z,54.20
2018-12-01T11:53:19.963Z,54.30
2018-12-01T11:55:49.347Z,54.30
2018-12-01T11:58:18.749Z,54.60
2018-12-01T12:00:48.192Z,54.60
2018-12-01T12:03:17.615Z,54.80
2018-12-01T12:05:46.961Z,55.30
2018-12-01T12:08:19.005Z,56.30
2018-12-01T12:10:48.414Z,56.50
2018-12-01T12:13:17.873Z,56.80
2018-12-01T12:15:47.306Z,56.80
2018-12-01T12:18:16.722Z,56.70
2018-12-01T12:20:46.146Z,56.80
2018-12-01T12:23:16.782Z,57.00
2018-12-01T12:25:45.143Z,57.20
2018-12-01T12:28:14.645Z,57.60
2018-12-01T12:30:44.203Z,57.50
2018-12-01T12:33:13.729Z,57.60
2018-12-01T12:35:44.192Z,58.00
2018-12-01T12:38:13.794Z,58.10
2018-12-01T12:40:43.765Z,58.30
2018-12-01T12:43:13.241Z,58.60
2018-12-01T12:45:43.157Z,58.50
2018-12-01T12:48:12.658Z,58.70
2018-12-01T12:50:42.221Z,58.60
2018-12-01T12:53:11.634Z,58.80
2018-12-01T12:55:41.194Z,59.10
2018-12-01T12:58:10.646Z,59.10
2018-12-01T13:00:40.190Z,59.40
2018-12-01T13:03:10.948Z,59.60
2018-12-01T13:05:41.515Z,59.80
2018-12-01T13:08:11.644Z,60.10
2018-12-01T13:10:41.055Z,60.40
2018-12-01T13:13:10.455Z,60.60
2018-12-01T13:15:40.393Z,60.80
2018-12-01T13:18:14.592Z,60.90
2018-12-01T13:20:45.176Z,61.20
2018-12-01T13:23:14.739Z,62.20
2018-12-01T13:25:44.286Z,61.80
2018-12-01T13:28:19.849Z,62.10
2018-12-01T13:30:54.657Z,62.40
2018-12-01T13:33:24.560Z,62.70
2018-12-01T13:35:54.060Z,63.10
2018-12-01T13:38:23.687Z,63.10
2018-12-01T13:40:53.088Z,63.70
2018-12-01T13:43:22.540Z,64.00
2018-12-01T13:45:51.971Z,63.90
2018-12-01T13:48:21.405Z,64.20
2018-12-01T13:50:50.772Z,64.60
2018-12-01T13:53:20.560Z,64.60
2018-12-01T13:55:49.871Z,64.90
2018-12-01T13:58:19.304Z,65.10
2018-12-01T14:00:48.633Z,65.70
2018-12-01T14:03:18.111Z,65.90
2018-12-01T14:05:47.555Z,65.90
2018-12-01T14:08:17.128Z,65.70
2018-12-01T14:10:51.124Z,65.60
2018-12-01T14:13:20.490Z,66.00
2018-12-01T14:15:49.924Z,66.00
2018-12-01T14:18:19.711Z,66.40
2018-12-01T14:20:49.154Z,66.70
2018-12-01T14:23:18.635Z,67.00
2018-12-01T14:25:48.111Z,67.20
2018-12-01T14:28:17.554Z,68.00
2018-12-01T14:30:47.101Z,67.50
2018-12-01T14:33:16.620Z,67.50
2018-12-01T14:35:45.999Z,67.30
2018-12-01T14:38:16.710Z,67.50
2018-12-01T14:40:48.139Z,67.40
2018-12-01T14:43:17.663Z,67.40
2018-12-01T14:45:48.193Z,67.20
2018-12-01T14:48:17.653Z,67.30
2018-12-01T14:50:48.825Z,67.40
2018-12-01T14:53:17.445Z,67.80
2018-12-01T14:55:46.863Z,67.80
2018-12-01T14:58:16.268Z,68.20
2018-12-01T15:00:45.605Z,68.50
2018-12-01T15:03:14.958Z,69.00
2018-12-01T15:05:44.329Z,69.10
2018-12-01T15:08:13.760Z,69.20
2018-12-01T15:10:43.186Z,69.10
2018-12-01T15:13:12.562Z,69.40
2018-12-01T15:15:41.914Z,69.40
2018-12-01T15:18:11.250Z,69.80
2018-12-01T15:20:40.630Z,70.20
2018-12-01T15:23:10.131Z,70.40
2018-12-01T15:25:39.488Z,70.50
2018-12-01T15:28:08.943Z,71.10
2018-12-01T15:30:38.396Z,71.20
2018-12-01T15:33:11.076Z,71.20
2018-12-01T15:35:41.389Z,71.20
2018-12-01T15:38:11.286Z,71.30
2018-12-01T15:40:43.406Z,71.50
2018-12-01T15:43:12.891Z,71.70
2018-12-01T15:45:42.435Z,71.90
2018-12-01T15:48:11.821Z,72.10
2018-12-01T15:50:41.423Z,72.40
2018-12-01T15:53:12.142Z,72.70
2018-12-01T15:55:41.713Z,72.90
2018-12-01T15:58:11.146Z,73.10
2018-12-01T16:00:41.416Z,73.30
2018-12-01T16:03:10.835Z,73.40
2018-12-01T16:05:40.279Z,73.60
2018-12-01T16:08:10.607Z,73.80
2018-12-01T16:10:39.995Z,73.90
2018-12-01T16:13:24.768Z,74.00
2018-12-01T16:16:02.690Z,74.20
2018-12-01T16:18:32.206Z,74.60
2018-12-01T16:21:01.672Z,74.90
2018-12-01T16:23:31.137Z,75.10
2018-12-01T16:26:00.521Z,75.20
2018-12-01T16:28:29.870Z,75.50
2018-12-01T16:30:59.321Z,75.60
2018-12-01T16:33:28.733Z,75.60
2018-12-01T16:35:58.226Z,75.80
2018-12-01T16:38:30.425Z,75.90
2018-12-01T16:41:03.055Z,76.10
2018-12-01T16:43:33.974Z,76.40
2018-12-01T16:46:03.461Z,76.50
2018-12-01T16:48:33.260Z,77.10
2018-12-01T16:51:02.361Z,76.90
2018-12-01T16:53:31.769Z,77.00
2018-12-01T16:56:01.124Z,77.20
2018-12-01T16:58:30.622Z,77.30
2018-12-01T17:01:00.106Z,77.30
2018-12-01T17:03:29.495Z,77.50
2018-12-01T17:06:00.305Z,77.50
2018-12-01T17:08:29.771Z,77.30
2018-12-01T17:10:59.123Z,77.30
2018-12-01T17:13:28.626Z,77.30
2018-12-01T17:15:58.139Z,77.60
2018-12-01T17:18:27.797Z,77.50
2018-12-01T17:20:57.298Z,77.60
2018-12-01T17:23:26.749Z,77.60
2018-12-01T17:25:56.165Z,77.60
2018-12-01T17:28:25.758Z,77.50
2018-12-01T17:30:55.331Z,77.50
2018-12-01T17:33:24.962Z,77.50
2018-12-01T17:35:54.445Z,77.40
2018-12-01T17:38:23.900Z,77.40
2018-12-01T17:41:02.107Z,77.40
2018-12-01T17:43:39.050Z,77.50
2018-12-01T17:46:08.461Z,77.70
2018-12-01T17:48:37.918Z,77.70
2018-12-01T17:51:07.285Z,77.50
2018-12-01T17:53:37.789Z,78.10
2018-12-01T17:56:07.428Z,77.50
2018-12-01T17:58:36.889Z,77.70
2018-12-01T18:01:06.687Z,77.60
2018-12-01T18:03:37.288Z,77.20
2018-12-01T18:06:11.134Z,77.20
2018-12-01T18:08:40.634Z,77.30
2018-12-01T18:11:11.594Z,77.40
2018-12-01T18:13:41.202Z,77.50
2018-12-01T18:16:10.787Z,77.50
2018-12-01T18:18:41.535Z,77.40
2018-12-01T18:21:10.993Z,77.30
2018-12-01T18:23:40.506Z,77.40
2018-12-01T18:26:10.300Z,77.30
2018-12-01T18:28:44.487Z,77.40
2018-12-01T18:31:16.138Z,77.30
2018-12-01T18:33:47.144Z,77.30
2018-12-01T18:36:16.574Z,77.20
2018-12-01T18:38:48.083Z,77.00
2018-12-01T18:41:17.533Z,77.10
2018-12-01T18:43:47.137Z,77.00
2018-12-01T18:46:16.711Z,76.90
2018-12-01T18:48:46.785Z,76.80
2018-12-01T18:51:16.145Z,76.80
2018-12-01T18:53:45.588Z,77.50
2018-12-01T18:56:16.043Z,76.80
2018-12-01T18:58:45.484Z,76.70
2018-12-01T19:01:14.927Z,76.30
2018-12-01T19:03:45.234Z,76.00
2018-12-01T19:06:14.594Z,76.00
2018-12-01T19:08:43.972Z,75.80
2018-12-01T19:11:13.410Z,75.60
2018-12-01T19:13:42.888Z,75.60
2018-12-01T19:16:12.605Z,75.50
2018-12-01T19:18:42.527Z,75.50
2018-12-01T19:21:13.155Z,75.40
2018-12-01T19:23:42.774Z,75.50
2018-12-01T19:26:13.339Z,75.60
2018-12-01T19:28:43.104Z,75.70
2018-12-01T19:31:14.719Z,75.90
2018-12-01T19:33:44.590Z,76.10
2018-12-01T19:36:14.202Z,76.10
2018-12-01T19:38:43.732Z,76.20
2018-12-01T19:41:13.366Z,76.30
2018-12-01T19:43:47.673Z,76.60
2018-12-01T19:46:17.558Z,76.70
2018-12-01T19:48:47.099Z,76.90
2018-12-01T19:51:17.436Z,76.70
2018-12-01T19:53:46.918Z,76.60
2018-12-01T19:56:16.475Z,76.50
2018-12-01T19:58:46.006Z,76.40
2018-12-01T20:01:15.515Z,76.60
2018-12-01T20:03:44.901Z,76.60
2018-12-01T20:06:14.470Z,76.40
2018-12-01T20:08:43.791Z,76.20
2018-12-01T20:11:13.213Z,76.30
2018-12-01T20:13:46.225Z,76.10
2018-12-01T20:16:30.480Z,76.20
2018-12-01T20:19:02.994Z,76.30
2018-12-01T20:21:32.785Z,76.30
2018-12-01T20:24:02.189Z,76.50
2018-12-01T20:26:31.725Z,76.40
2018-12-01T20:29:01.217Z,76.40
2018-12-01T20:31:30.663Z,76.40
2018-12-01T20:34:01.970Z,76.20
2018-12-01T20:36:36.378Z,76.10
2018-12-01T20:39:13.182Z,76.20
2018-12-01T20:41:42.555Z,76.50
2018-12-01T20:44:12.024Z,76.80
2018-12-01T20:46:41.446Z,76.50
2018-12-01T20:49:11.457Z,76.20
2018-12-01T20:51:40.862Z,76.10
2018-12-01T20:54:17.412Z,76.20
2018-12-01T20:56:46.835Z,76.30
2018-12-01T20:59:16.206Z,76.30
2018-12-01T21:01:45.591Z,76.30
2018-12-01T21:04:14.973Z,76.00
2018-12-01T21:06:44.541Z,75.70
2018-12-01T21:09:13.983Z,75.80
2018-12-01T21:11:43.551Z,76.00
2018-12-01T21:14:13.021Z,76.10
2018-12-01T21:16:42.527Z,75.90
2018-12-01T21:19:12.134Z,75.80
2018-12-01T21:21:41.642Z,75.80
2018-12-01T21:24:11.054Z,75.90
2018-12-01T21:26:40.574Z,76.00
2018-12-01T21:29:09.942Z,75.90
2018-12-01T21:31:39.343Z,76.00
2018-12-01T21:34:08.774Z,75.90
2018-12-01T21:36:38.163Z,75.70
2018-12-01T21:39:09.246Z,75.70
2018-12-01T21:41:38.760Z,79.30
2018-12-01T21:44:08.127Z,81.00
2018-12-01T21:46:37.635Z,81.40
2018-12-01T21:49:07.108Z,81.00
2018-12-01T21:51:36.562Z,80.90
2018-12-01T21:54:06.318Z,81.20
2018-12-01T21:56:35.820Z,80.40
2018-12-01T21:59:05.293Z,80.00
2018-12-01T22:01:34.850Z,80.20
2018-12-01T22:04:04.239Z,80.30
2018-12-01T22:06:33.589Z,80.10
2018-12-01T22:09:03.238Z,80.30
2018-12-01T22:11:32.639Z,80.30
2018-12-01T22:14:02.087Z,79.70
2018-12-01T22:16:31.450Z,79.40
2018-12-01T22:19:00.924Z,79.70
2018-12-01T22:21:30.323Z,79.90
2018-12-01T22:23:59.715Z,79.80
2018-12-01T22:26:29.069Z,80.10
2018-12-01T22:28:58.467Z,80.20
2018-12-01T22:31:27.873Z,80.40
2018-12-01T22:33:57.302Z,80.40
2018-12-01T22:36:26.730Z,79.90
2018-12-01T22:38:56.160Z,79.70
2018-12-01T22:41:25.538Z,79.50
2018-12-01T22:43:54.977Z,79.70
2018-12-01T22:46:24.362Z,79.60
2018-12-01T22:48:53.807Z,79.30
2018-12-01T22:51:23.174Z,79.20
2018-12-01T22:53:52.607Z,79.20
2018-12-01T22:56:21.990Z,79.40
2018-12-01T22:58:51.487Z,79.40
2018-12-01T23:01:20.886Z,79.70
2018-12-01T23:03:50.329Z,79.60
2018-12-01T23:06:19.741Z,79.80
2018-12-01T23:08:49.166Z,80.00
2018-12-01T23:11:19.580Z,80.00
2018-12-01T23:13:49.787Z,80.00
2018-12-01T23:16:19.252Z,80.10
2018-12-01T23:18:48.614Z,80.10
2018-12-01T23:21:20.572Z,80.20
2018-12-01T23:23:47.583Z,80.40
2018-12-01T23:26:16.977Z,80.20
2018-12-01T23:28:46.448Z,80.10
2018-12-01T23:31:16.437Z,80.20
2018-12-01T23:33:45.850Z,80.60
2018-12-01T23:36:15.236Z,80.60
2018-12-01T23:38:44.639Z,80.30
2018-12-01T23:41:14.072Z,80.20
2018-12-01T23:43:43.490Z,80.80
2018-12-01T23:46:12.903Z,79.90
2018-12-01T23:48:42.855Z,79.60
2018-12-01T23:51:12.182Z,79.40
2018-12-01T23:53:41.621Z,79.50
2018-12-01T23:56:11.023Z,80.00
2018-12-01T23:58:40.414Z,80.80
